createdAt,value
2022-09-12T00:02:07.843Z,101335.03
2022-09-12T00:04:38.382Z,101331.81
2022-09-12T00:07:15.875Z,101337.34
2022-09-12T00:09:44.776Z,101330.50
2022-09-12T00:12:13.850Z,101331.75
2022-09-12T00:14:43.009Z,101336.31
2022-09-12T00:17:11.024Z,101330.47
2022-09-12T00:19:38.694Z,101323.75
2022-09-12T00:22:07.906Z,101325.81
2022-09-12T00:24:35.532Z,101327.03
2022-09-12T00:27:03.262Z,101323.81
2022-09-12T00:29:31.233Z,101326.56
2022-09-12T00:31:59.057Z,101318.09
2022-09-12T00:34:27.649Z,101325.16
2022-09-12T00:36:57.537Z,101320.00
2022-09-12T00:39:29.736Z,101326.47
2022-09-12T00:41:59.251Z,101322.44
2022-09-12T00:44:49.609Z,101319.22
2022-09-12T00:47:22.369Z,101316.84
2022-09-12T00:49:56.798Z,101326.66
2022-09-12T00:52:30.991Z,101317.28
2022-09-12T00:55:08.022Z,101323.66
2022-09-12T00:57:42.710Z,101317.78
2022-09-12T01:00:16.480Z,101319.00
2022-09-12T01:02:47.129Z,101322.72
2022-09-12T01:05:15.895Z,101315.91
2022-09-12T01:07:49.040Z,101316.97
2022-09-12T01:10:21.032Z,101316.16
2022-09-12T01:12:50.231Z,101319.72
2022-09-12T01:15:21.532Z,101312.06
2022-09-12T01:18:05.745Z,101315.94
2022-09-12T01:21:04.005Z,101315.34
2022-09-12T01:24:04.641Z,101318.34
2022-09-12T01:26:57.403Z,101312.47
2022-09-12T01:29:49.707Z,101313.56
2022-09-12T01:32:25.417Z,101310.44
2022-09-12T01:35:00.426Z,101326.34
2022-09-12T01:37:37.308Z,101320.50
2022-09-12T01:40:17.281Z,101320.75
2022-09-12T01:42:54.037Z,101321.09
2022-09-12T01:45:27.795Z,101322.06
2022-09-12T01:48:03.816Z,101321.22
2022-09-12T01:50:36.256Z,101318.72
2022-09-12T01:53:10.915Z,101311.91
2022-09-12T01:55:44.863Z,101312.84
2022-09-12T01:58:18.607Z,101312.84
2022-09-12T02:00:52.475Z,101299.94
2022-09-12T02:03:29.827Z,101307.94
2022-09-12T02:06:04.428Z,101305.56
2022-09-12T02:08:37.985Z,101304.72
2022-09-12T02:11:10.015Z,101307.34
2022-09-12T02:13:44.703Z,101314.53
2022-09-12T02:16:20.283Z,101314.66
2022-09-12T02:18:55.789Z,101312.13
2022-09-12T02:21:25.943Z,101314.75
2022-09-12T02:24:00.484Z,101315.97
2022-09-12T02:26:39.559Z,101318.72
2022-09-12T02:29:08.040Z,101309.03
2022-09-12T02:31:45.765Z,101317.03
2022-09-12T02:34:29.360Z,101317.28
2022-09-12T02:37:08.020Z,101306.75
2022-09-12T02:39:37.336Z,101298.97
2022-09-12T02:42:06.490Z,101300.78
2022-09-12T02:44:37.277Z,101308.78
2022-09-12T02:47:10.416Z,101296.59
2022-09-12T02:49:40.744Z,101303.53
2022-09-12T02:52:10.672Z,101304.47
2022-09-12T02:54:39.571Z,101305.56
2022-09-12T02:57:22.437Z,101315.38
2022-09-12T02:59:54.286Z,101310.22
2022-09-12T03:02:32.039Z,101315.47
2022-09-12T03:05:27.001Z,101323.50
2022-09-12T03:08:13.485Z,101322.50
2022-09-12T03:10:53.298Z,101320.75
2022-09-12T03:13:26.683Z,101313.69
2022-09-12T03:16:05.399Z,101318.94
2022-09-12T03:18:47.452Z,101320.63
2022-09-12T03:21:27.184Z,101310.94
2022-09-12T03:24:06.076Z,101308.31
2022-09-12T03:26:39.403Z,101308.31
2022-09-12T03:29:08.834Z,101309.13
2022-09-12T03:31:36.442Z,101312.63
2022-09-12T03:34:04.371Z,101309.13
2022-09-12T03:36:33.354Z,101307.38
2022-09-12T03:39:01.221Z,101304.72
2022-09-12T03:41:28.978Z,101306.50
2022-09-12T03:43:57.037Z,101315.25
2022-09-12T03:46:24.809Z,101315.25
2022-09-12T03:48:52.759Z,101311.75
2022-09-12T03:51:21.128Z,101310.94
2022-09-12T03:53:50.499Z,101317.13
2022-09-12T03:56:19.393Z,101314.63
2022-09-12T03:58:47.942Z,101304.22
2022-09-12T04:01:18.241Z,101319.28
2022-09-12T04:03:47.890Z,101308.78
2022-09-12T04:06:18.066Z,101316.88
2022-09-12T04:08:48.864Z,101314.25
2022-09-12T04:11:19.212Z,101324.06
2022-09-12T04:13:47.691Z,101320.59
2022-09-12T04:16:17.671Z,101319.88
2022-09-12T04:18:46.514Z,101321.78
2022-09-12T04:21:16.991Z,101325.34
2022-09-12T04:23:45.062Z,101321.03
2022-09-12T04:26:13.820Z,101318.53
2022-09-12T04:28:43.412Z,101320.44
2022-09-12T04:31:15.620Z,101322.34
2022-09-12T04:33:43.606Z,101325.91
2022-09-12T04:36:14.374Z,101320.78
2022-09-12T04:38:42.397Z,101316.47
2022-09-12T04:41:14.527Z,101318.38
2022-09-12T04:43:46.489Z,101314.94
2022-09-12T04:46:16.579Z,101305.34
2022-09-12T04:48:44.839Z,101319.34
2022-09-12T04:51:15.164Z,101313.34
2022-09-12T04:53:43.774Z,101328.28
2022-09-12T04:56:12.904Z,101329.22
2022-09-12T04:58:40.498Z,101324.09
2022-09-12T05:01:12.156Z,101319.81
2022-09-12T05:03:43.415Z,101319.81
2022-09-12T05:06:13.776Z,101319.91
2022-09-12T05:08:42.021Z,101319.81
2022-09-12T05:11:13.214Z,101321.56
2022-09-12T05:13:41.669Z,101311.06
2022-09-12T05:16:12.571Z,101326.81
2022-09-12T05:18:40.685Z,101325.88
2022-09-12T05:21:10.549Z,101321.56
2022-09-12T05:23:38.418Z,101333.88
2022-09-12T05:26:08.435Z,101328.63
2022-09-12T05:28:39.610Z,101329.34
2022-09-12T05:31:09.393Z,101338.09
2022-09-12T05:33:39.558Z,101331.03
2022-09-12T05:36:11.231Z,101336.28
2022-09-12T05:38:39.230Z,101331.75
2022-09-12T05:41:12.408Z,101338.69
2022-09-12T05:43:45.184Z,101344.66
2022-09-12T05:46:15.383Z,101351.72
2022-09-12T05:48:46.952Z,101347.88
2022-09-12T05:51:19.344Z,101353.75
2022-09-12T05:53:48.278Z,101356.91
2022-09-12T05:56:18.090Z,101363.63
2022-09-12T05:58:50.701Z,101361.59
2022-09-12T06:01:20.095Z,101363.75
2022-09-12T06:03:51.610Z,101358.28
2022-09-12T06:06:24.408Z,101356.25
2022-09-12T06:08:53.685Z,101363.78
2022-09-12T06:11:23.142Z,101360.91
2022-09-12T06:13:51.509Z,101361.63
2022-09-12T06:16:23.096Z,101359.47
2022-09-12T06:18:54.258Z,101366.09
2022-09-12T06:21:22.906Z,101363.91
2022-09-12T06:23:51.142Z,101370.47
2022-09-12T06:26:21.695Z,101375.72
2022-09-12T06:28:49.538Z,101370.59
2022-09-12T06:31:19.359Z,101376.66
2022-09-12T06:33:49.225Z,101371.38
2022-09-12T06:36:22.461Z,101382.88
2022-09-12T06:38:55.055Z,101377.25
2022-09-12T06:41:23.013Z,101385.66
2022-09-12T06:43:50.966Z,101381.34
2022-09-12T06:46:18.992Z,101385.88
2022-09-12T06:48:48.431Z,101381.41
2022-09-12T06:51:20.148Z,101379.06
2022-09-12T06:53:48.798Z,101388.63
2022-09-12T06:56:18.945Z,101388.47
2022-09-12T06:58:48.036Z,101383.56
2022-09-12T07:01:17.777Z,101377.25
2022-09-12T07:03:49.641Z,101382.63
2022-09-12T07:06:20.169Z,101379.25
2022-09-12T07:08:48.557Z,101392.22
2022-09-12T07:11:18.582Z,101384.94
2022-09-12T07:13:48.306Z,101380.25
2022-09-12T07:16:19.617Z,101380.88
2022-09-12T07:18:51.836Z,101376.84
2022-09-12T07:21:21.777Z,101386.47
2022-09-12T07:23:51.787Z,101383.59
2022-09-12T07:26:19.606Z,101386.38
2022-09-12T07:28:52.072Z,101384.97
2022-09-12T07:31:22.814Z,101383.88
2022-09-12T07:33:54.634Z,101388.13
2022-09-12T07:36:25.735Z,101383.19
2022-09-12T07:38:57.829Z,101388.81
2022-09-12T07:41:28.492Z,101398.50
2022-09-12T07:43:58.119Z,101385.25
2022-09-12T07:46:27.094Z,101386.19
2022-09-12T07:48:55.965Z,101388.28
2022-09-12T07:51:26.033Z,101390.19
2022-09-12T07:53:54.129Z,101392.03
2022-09-12T07:56:26.102Z,101386.31
2022-09-12T07:58:56.921Z,101388.94
2022-09-12T08:01:25.446Z,101381.84
2022-09-12T08:03:56.952Z,101383.81
2022-09-12T08:06:27.520Z,101395.44
2022-09-12T08:08:57.160Z,101391.38
2022-09-12T08:11:26.477Z,101399.41
2022-09-12T08:13:56.278Z,101397.34
2022-09-12T08:16:28.006Z,101393.38
2022-09-12T08:18:55.920Z,101392.91
2022-09-12T08:21:27.009Z,101388.41
2022-09-12T08:23:56.473Z,101390.41
2022-09-12T08:26:25.143Z,101387.41
2022-09-12T08:28:53.259Z,101391.03
2022-09-12T08:31:24.089Z,101390.38
2022-09-12T08:33:53.552Z,101398.22
2022-09-12T08:36:23.443Z,101402.91
2022-09-12T08:38:59.574Z,101393.56
2022-09-12T08:41:32.034Z,101392.75
2022-09-12T08:44:27.370Z,101400.56
2022-09-12T08:47:19.018Z,101398.88
2022-09-12T08:49:55.040Z,101402.13
2022-09-12T08:52:29.052Z,101408.09
2022-09-12T08:54:58.562Z,101397.63
2022-09-12T08:57:26.734Z,101396.50
2022-09-12T08:59:54.790Z,101400.16
2022-09-12T09:02:46.701Z,101402.25
2022-09-12T09:05:24.336Z,101402.66
2022-09-12T09:08:12.202Z,101390.78
2022-09-12T09:10:53.153Z,101394.53
2022-09-12T09:13:52.045Z,101393.63
2022-09-12T09:16:27.329Z,101393.09
2022-09-12T09:18:57.111Z,101382.19
2022-09-12T09:21:30.621Z,101387.75
2022-09-12T09:24:05.145Z,101381.38
2022-09-12T09:26:43.461Z,101381.81
2022-09-12T09:29:18.618Z,101381.50
2022-09-12T09:31:50.096Z,101375.00
2022-09-12T09:34:24.452Z,101374.50
2022-09-12T09:36:58.464Z,101376.66
2022-09-12T09:39:53.878Z,101380.09
2022-09-12T09:42:34.645Z,101372.91
2022-09-12T09:45:18.545Z,101372.91
2022-09-12T09:47:55.569Z,101367.94
2022-09-12T09:50:24.516Z,101373.31
2022-09-12T09:52:54.115Z,101374.53
2022-09-12T09:55:26.889Z,101371.16
2022-09-12T09:58:07.464Z,101367.22
2022-09-12T10:00:44.440Z,101372.09
2022-09-12T10:03:29.834Z,101365.56
2022-09-12T10:06:01.445Z,101368.16
2022-09-12T10:08:31.509Z,101364.88
2022-09-12T10:11:02.950Z,101366.41
2022-09-12T10:13:54.635Z,101359.88
2022-09-12T10:16:30.830Z,101355.53
2022-09-12T10:19:00.135Z,101354.47
2022-09-12T10:21:33.401Z,101352.13
2022-09-12T10:24:07.389Z,101345.31
2022-09-12T10:26:41.033Z,101354.34
2022-09-12T10:29:18.186Z,101357.25
2022-09-12T10:31:50.875Z,101356.34
2022-09-12T10:34:29.232Z,101359.38
2022-09-12T10:37:02.838Z,101343.13
2022-09-12T10:39:31.216Z,101339.72
2022-09-12T10:41:59.550Z,101338.91
2022-09-12T10:44:30.907Z,101340.28
2022-09-12T10:47:00.344Z,101340.13
2022-09-12T10:49:31.489Z,101335.66
2022-09-12T10:52:18.220Z,101330.91
2022-09-12T10:54:46.407Z,101331.16
2022-09-12T10:57:47.605Z,101331.97
2022-09-12T11:00:30.345Z,101338.47
2022-09-12T11:03:06.374Z,101327.84
2022-09-12T11:05:52.358Z,101327.34
2022-09-12T11:08:39.359Z,101331.34
2022-09-12T11:11:14.238Z,101326.28
2022-09-12T11:13:56.582Z,101329.31
2022-09-12T11:16:32.183Z,101331.56
2022-09-12T11:19:18.074Z,101325.97
2022-09-12T11:22:02.665Z,101326.19
2022-09-12T11:24:46.475Z,101327.72
2022-09-12T11:27:32.002Z,101322.63
2022-09-12T11:30:02.585Z,101329.09
2022-09-12T11:32:49.341Z,101324.34
2022-09-12T11:35:25.753Z,101332.09
2022-09-12T11:38:19.471Z,101324.94
2022-09-12T11:40:52.338Z,101329.34
2022-09-12T11:43:31.405Z,101323.38
2022-09-12T11:46:05.313Z,101316.78
2022-09-12T11:48:46.129Z,101322.59
2022-09-12T11:51:20.041Z,101320.53
2022-09-12T11:54:00.705Z,101314.44
2022-09-12T11:56:28.483Z,101312.84
2022-09-12T11:59:02.233Z,101312.31
2022-09-12T12:01:41.291Z,101315.47
2022-09-12T12:04:16.475Z,101310.03
2022-09-12T12:06:52.380Z,101307.09
2022-09-12T12:09:20.693Z,101305.13
2022-09-12T12:11:54.342Z,101291.50
2022-09-12T12:14:25.663Z,101291.69
2022-09-12T12:16:53.852Z,101295.31
2022-09-12T12:19:34.941Z,101289.00
2022-09-12T12:22:25.419Z,101286.50
2022-09-12T12:25:07.910Z,101288.47
2022-09-12T12:27:51.974Z,101283.78
2022-09-12T12:31:05.734Z,101287.22
2022-09-12T12:34:06.799Z,101279.19
2022-09-12T12:36:41.845Z,101281.59
2022-09-12T12:39:48.095Z,101279.19
2022-09-12T12:43:04.645Z,101281.78
2022-09-12T12:46:14.908Z,101279.00
2022-09-12T12:49:11.491Z,101285.31
2022-09-12T12:51:51.151Z,101278.75
2022-09-12T12:54:57.693Z,101283.75
2022-09-12T12:57:33.935Z,101277.41
2022-09-12T13:00:04.677Z,101272.03
2022-09-12T13:02:39.055Z,101268.03
2022-09-12T13:05:17.534Z,101273.25
2022-09-12T13:07:48.075Z,101278.72
2022-09-12T13:10:24.302Z,101278.78
2022-09-12T13:12:53.100Z,101272.78
2022-09-12T13:15:49.196Z,101267.16
2022-09-12T13:18:23.231Z,101262.25
2022-09-12T13:20:56.548Z,101262.91
2022-09-12T13:23:28.100Z,101260.81
2022-09-12T13:25:56.722Z,101258.72
2022-09-12T13:28:26.398Z,101261.81
2022-09-12T13:31:02.028Z,101247.00
2022-09-12T13:33:41.383Z,101244.38
2022-09-12T13:36:26.907Z,101239.31
2022-09-12T13:39:11.730Z,101237.50
2022-09-12T13:41:58.743Z,101234.44
2022-09-12T13:44:27.986Z,101226.88
2022-09-12T13:47:00.152Z,101232.16
2022-09-12T13:49:33.288Z,101234.84
2022-09-12T13:52:04.297Z,101238.34
2022-09-12T13:54:35.108Z,101226.38
2022-09-12T13:57:03.139Z,101225.00
2022-09-12T13:59:39.814Z,101223.09
2022-09-12T14:02:19.913Z,101218.31
2022-09-12T14:05:03.093Z,101224.97
2022-09-12T14:07:32.964Z,101222.13
2022-09-12T14:10:04.867Z,101218.56
2022-09-12T14:12:37.535Z,101228.72
2022-09-12T14:15:12.640Z,101227.00
2022-09-12T14:17:41.785Z,101221.56
2022-09-12T14:20:16.252Z,101221.75
2022-09-12T14:22:46.416Z,101218.44
2022-09-12T14:25:20.965Z,101215.97
2022-09-12T14:27:53.940Z,101213.66
2022-09-12T14:30:25.089Z,101212.34
2022-09-12T14:33:18.146Z,101208.59
2022-09-12T14:35:48.379Z,101214.28
2022-09-12T14:39:15.857Z,101212.78
2022-09-12T14:41:46.271Z,101202.03
2022-09-12T14:44:24.772Z,101209.66
2022-09-12T14:47:37.158Z,101199.25
2022-09-12T14:50:09.405Z,101204.63
2022-09-12T14:52:40.163Z,101206.47
2022-09-12T14:55:25.029Z,101207.47
2022-09-12T15:00:58.666Z,101193.03
2022-09-12T15:03:29.908Z,101190.06
2022-09-12T15:05:58.720Z,101187.47
2022-09-12T15:08:27.210Z,101190.50
2022-09-12T15:10:55.081Z,101188.84
2022-09-12T15:13:25.941Z,101190.84
2022-09-12T15:15:55.871Z,101185.53
2022-09-12T15:18:26.784Z,101189.19
2022-09-12T15:20:57.630Z,101179.09
2022-09-12T15:23:40.175Z,101187.44
2022-09-12T15:26:08.597Z,101188.78
2022-09-12T15:28:36.272Z,101187.84
2022-09-12T15:31:11.440Z,101187.56
2022-09-12T15:33:40.559Z,101193.06
2022-09-12T15:36:16.507Z,101179.25
2022-09-12T15:38:45.346Z,101178.97
2022-09-12T15:41:15.980Z,101178.47
2022-09-12T15:43:44.336Z,101186.13
2022-09-12T15:46:13.748Z,101185.66
2022-09-12T15:48:43.484Z,101178.88
2022-09-12T15:51:15.460Z,101178.38
2022-09-12T15:53:44.655Z,101172.56
2022-09-12T15:56:12.806Z,101179.25
2022-09-12T15:58:50.023Z,101177.28
2022-09-12T16:01:25.364Z,101177.63
2022-09-12T16:03:54.389Z,101169.19
2022-09-12T16:06:22.203Z,101162.34
2022-09-12T16:08:50.282Z,101168.22
2022-09-12T16:11:20.942Z,101164.25
2022-09-12T16:13:48.679Z,101155.13
2022-09-12T16:16:16.423Z,101160.78
2022-09-12T16:18:44.366Z,101149.84
2022-09-12T16:21:15.430Z,101148.50
2022-09-12T16:23:43.941Z,101150.69
2022-09-12T16:26:11.722Z,101153.53
2022-09-12T16:28:40.032Z,101139.91
2022-09-12T16:31:09.543Z,101143.91
2022-09-12T16:33:39.295Z,101150.41
2022-09-12T16:36:09.235Z,101139.25
2022-09-12T16:38:43.848Z,101141.44
2022-09-12T16:41:12.335Z,101131.97
2022-09-12T16:43:40.526Z,101138.44
2022-09-12T16:46:10.366Z,101131.00
2022-09-12T16:48:42.541Z,101136.81
2022-09-12T16:51:10.274Z,101121.53
2022-09-12T16:53:39.336Z,101121.22
2022-09-12T16:56:10.001Z,101126.22
2022-09-12T16:58:48.230Z,101128.56
2022-09-12T17:01:18.322Z,101129.06
2022-09-12T17:03:46.637Z,101118.13
2022-09-12T17:06:16.562Z,101117.97
2022-09-12T17:08:46.583Z,101113.16
2022-09-12T17:11:17.633Z,101113.66
2022-09-12T17:14:04.009Z,101109.00
2022-09-12T17:16:33.511Z,101112.19
2022-09-12T17:19:01.434Z,101106.69
2022-09-12T17:21:30.449Z,101109.84
2022-09-12T17:23:59.196Z,101097.53
2022-09-12T17:26:29.431Z,101102.53
2022-09-12T17:28:57.134Z,101099.53
2022-09-12T17:31:24.973Z,101097.53
2022-09-12T17:33:57.227Z,101109.81
2022-09-12T17:36:25.373Z,101109.50
2022-09-12T17:38:54.294Z,101104.00
2022-09-12T17:41:23.649Z,101104.50
2022-09-12T17:43:55.678Z,101106.66
2022-09-12T17:46:25.102Z,101116.06
2022-09-12T17:48:53.829Z,101113.91
2022-09-12T17:51:24.799Z,101112.75
2022-09-12T17:53:59.246Z,101115.88
2022-09-12T17:56:28.041Z,101107.69
2022-09-12T17:58:57.834Z,101104.72
2022-09-12T18:01:44.348Z,101108.84
2022-09-12T18:04:12.233Z,101120.09
2022-09-12T18:06:40.902Z,101114.44
2022-09-12T18:09:10.779Z,101121.19
2022-09-12T18:11:53.821Z,101124.34
2022-09-12T18:14:56.294Z,101121.47
2022-09-12T18:17:56.657Z,101128.09
2022-09-12T18:20:40.206Z,101115.47
2022-09-12T18:23:44.114Z,101116.94
2022-09-12T18:30:24.694Z,101118.03
2022-09-12T18:32:58.500Z,101116.69
2022-09-12T18:35:37.630Z,101119.81
2022-09-12T18:38:41.336Z,101112.47
2022-09-12T18:41:29.037Z,101110.09
2022-09-12T18:44:09.025Z,101106.28
2022-09-12T18:46:42.931Z,101112.84
2022-09-12T18:49:14.479Z,101109.69
2022-09-12T18:51:56.861Z,101102.19
2022-09-12T18:54:30.256Z,101110.63
2022-09-12T18:57:02.170Z,101106.47
2022-09-12T18:59:36.445Z,101105.94
2022-09-12T19:02:14.582Z,101100.28
2022-09-12T19:04:47.452Z,101104.06
2022-09-12T19:07:26.683Z,101101.72
2022-09-12T19:10:01.569Z,101089.78
2022-09-12T19:12:30.913Z,101087.44
2022-09-12T19:15:04.209Z,101090.22
2022-09-12T19:17:38.297Z,101086.09
2022-09-12T19:20:17.545Z,101079.13
2022-09-12T19:22:47.564Z,101069.66
2022-09-12T19:25:17.485Z,101070.94
2022-09-12T19:27:47.606Z,101072.38
2022-09-12T19:30:17.869Z,101072.63
2022-09-12T19:32:54.937Z,101069.59
2022-09-12T19:35:27.284Z,101069.75
2022-09-12T19:38:01.087Z,101069.75
2022-09-12T19:40:46.666Z,101074.22
2022-09-12T19:43:16.569Z,101063.78
2022-09-12T19:45:55.031Z,101064.91
2022-09-12T19:48:34.740Z,101060.59
2022-09-12T19:54:01.501Z,101054.38
2022-09-12T19:56:43.500Z,101055.78
2022-09-12T19:59:21.622Z,101055.72
2022-09-12T20:02:00.924Z,101061.47
2022-09-12T20:04:34.460Z,101062.75
2022-09-12T20:07:20.531Z,101058.03
2022-09-12T20:10:04.885Z,101054.19
2022-09-12T20:13:16.576Z,101050.47
2022-09-12T20:16:22.810Z,101045.63
2022-09-12T20:19:11.983Z,101042.91
2022-09-12T20:21:41.640Z,101047.50
2022-09-12T20:24:12.419Z,101043.19
2022-09-12T20:26:40.845Z,101040.53
2022-09-12T20:29:10.270Z,101047.78
2022-09-12T20:31:43.345Z,101047.22
2022-09-12T20:34:16.731Z,101039.75
2022-09-12T20:36:49.805Z,101039.91
2022-09-12T20:39:21.053Z,101041.88
2022-09-12T20:41:53.431Z,101038.53
2022-09-12T20:44:21.828Z,101044.09
2022-09-12T20:46:49.739Z,101032.84
2022-09-12T20:49:18.516Z,101027.69
2022-09-12T20:51:48.510Z,101027.31
2022-09-12T20:54:16.553Z,101027.47
2022-09-12T20:56:45.157Z,101026.22
2022-09-12T20:59:13.354Z,101024.00
2022-09-12T21:01:41.397Z,101024.97
2022-09-12T21:04:13.069Z,101026.78
2022-09-12T21:06:42.849Z,101016.34
2022-09-12T21:09:14.541Z,101024.44
2022-09-12T21:11:42.514Z,101017.50
2022-09-12T21:14:12.619Z,101023.88
2022-09-12T21:16:40.409Z,101021.53
2022-09-12T21:19:08.236Z,101018.50
2022-09-12T21:21:36.019Z,101020.59
2022-09-12T21:24:04.658Z,101013.63
2022-09-12T21:26:35.163Z,101020.34
2022-09-12T21:29:04.932Z,101019.63
2022-09-12T21:31:33.408Z,101014.66
2022-09-12T21:34:01.413Z,101022.59
2022-09-12T21:36:29.535Z,101014.94
2022-09-12T21:38:59.290Z,101011.03
2022-09-12T21:41:28.722Z,101013.97
2022-09-12T21:43:57.880Z,101002.19
2022-09-12T21:46:25.814Z,101003.59
2022-09-12T21:48:53.508Z,101002.88
2022-09-12T21:51:21.525Z,100999.97
2022-09-12T21:53:50.337Z,101009.72
2022-09-12T21:56:21.201Z,101009.03
2022-09-12T21:58:48.878Z,101003.03
2022-09-12T22:01:18.194Z,100995.44
2022-09-12T22:03:46.277Z,100992.78
2022-09-12T22:06:18.576Z,100988.47
2022-09-12T22:08:48.541Z,100986.13
2022-09-12T22:11:19.399Z,100985.56
2022-09-12T22:13:47.029Z,100988.06
2022-09-12T22:16:15.388Z,100982.53
2022-09-12T22:18:47.101Z,100986.25
2022-09-12T22:21:17.190Z,100979.75
2022-09-12T22:24:03.135Z,100980.03
2022-09-12T22:26:35.076Z,100970.41
2022-09-12T22:29:03.293Z,100963.47
2022-09-12T22:31:31.149Z,100962.94
2022-09-12T22:34:00.732Z,100949.03
2022-09-12T22:36:31.252Z,100954.44
2022-09-12T22:39:00.374Z,100955.44
2022-09-12T22:41:28.591Z,100951.00
2022-09-12T22:43:57.230Z,100951.94
2022-09-12T22:46:25.232Z,100947.81
2022-09-12T22:48:52.947Z,100942.81
2022-09-12T22:51:23.268Z,100930.75
2022-09-12T22:53:51.605Z,100933.25
2022-09-12T22:56:19.826Z,100930.16
2022-09-12T22:58:47.772Z,100923.38
2022-09-12T23:01:15.994Z,100924.22
2022-09-12T23:03:44.162Z,100897.44
2022-09-12T23:06:12.384Z,100898.38
2022-09-12T23:08:41.510Z,100895.19
2022-09-12T23:11:11.518Z,100899.78
2022-09-12T23:13:40.311Z,100892.97
2022-09-12T23:16:09.439Z,100901.06
2022-09-12T23:18:37.487Z,100890.91
2022-09-12T23:21:07.902Z,100888.69
2022-09-12T23:23:36.434Z,100887.72
2022-09-12T23:26:07.892Z,100889.94
2022-09-12T23:28:36.469Z,100882.16
2022-09-12T23:31:04.772Z,100891.03
2022-09-12T23:33:33.352Z,100893.94
2022-09-12T23:36:02.269Z,100897.69
2022-09-12T23:38:30.933Z,100888.94
2022-09-12T23:40:59.661Z,100891.56
2022-09-12T23:43:29.307Z,100890.88
2022-09-12T23:45:57.338Z,100882.16
2022-09-12T23:48:25.223Z,100884.78
2022-09-12T23:50:53.226Z,100881.16
2022-09-12T23:53:22.214Z,100875.47
2022-09-12T23:55:50.464Z,100874.78
2022-09-12T23:58:18.567Z,100872.97
